MaSS Merit — 3FNT3 — position and weather

sailwx.info

Track history (hours):
 
Tides and Currents Weather Stations Pressure Air Temp Water Temp Dewpoint Dewpoint Depression Visibility Wind Speed Wind Dir Waves Ship Positions

MaSS Merit

Last reported at 2017-Aug-20 08:13 UTC. Time now 2017-Aug-21 12:03 UTC.
Position N 20°14' E 110°49'.

Length 189 m; draft 6.2 m.

Type: Cargo ship. MMSI: 355599000.

Date/timePositionNaut miles runAvg speedWind from/ knotsBaromVisibWave heightAir tempDewpointWater temp
2017-Aug-20 08:13N 20°14' E 110°49'314.9
2017-Aug-20 08:01N 20°14' E 110°45'912.5
2017-Aug-20 07:16N 20°14' E 110°35'310.3
2017-Aug-20 07:00N 20°14' E 110°33'510.5
2017-Aug-20 06:31N 20°13' E 110°27'510.5
2017-Aug-20 06:00N 20°11' E 110°22'510.5
2017-Aug-20 05:30N 20°10' E 110°17'510.1
2017-Aug-20 05:00N 20°09' E 110°11'5 9.9
2017-Aug-20 04:30N 20°08' E 110°06'4 7.5
2017-Aug-20 03:59N 20°06' E 110°03'  
Track history (hours):
 
Tides and Currents Weather Stations Pressure Air Temp Water Temp Dewpoint Dewpoint Depression Visibility Wind Speed Wind Dir Waves Ship Positions

MaSS Merit

Last reported at 2017-Aug-20 08:13 UTC. Time now 2017-Aug-21 12:03 UTC.
Position N 20°14' E 110°49'.

Length 189 m; draft 6.2 m.

Type: Cargo ship. MMSI: 355599000.

Date/timePositionNaut miles runAvg speedWind from/ knotsBaromVisibWave heightAir tempDewpointWater temp
2017-Aug-20 08:13N 20°14' E 110°49'314.9
2017-Aug-20 08:01N 20°14' E 110°45'912.5
2017-Aug-20 07:16N 20°14' E 110°35'310.3
2017-Aug-20 07:00N 20°14' E 110°33'510.5
2017-Aug-20 06:31N 20°13' E 110°27'510.5
2017-Aug-20 06:00N 20°11' E 110°22'510.5
2017-Aug-20 05:30N 20°10' E 110°17'510.1
2017-Aug-20 05:00N 20°09' E 110°11'5 9.9
2017-Aug-20 04:30N 20°08' E 110°06'4 7.5
2017-Aug-20 03:59N 20°06' E 110°03'  

Dump ship's entire track history